LFMN/NCE METAR and TAF weather

Enter ICAO airport designator
Station Type Date Time Source
LFMN METAR 2019/02/16 17:00 UTC NOAA

LFMN 161700Z 00000KT 6000 NSC 13/07 Q1029 BECMG CAVOK


Station Type Date Time Source
LFMN Decoded METAR 2019/02/16 17:00 UTC NOAA

Nice, France (LFMN) 43-39N 007-12E 10M
Feb 16, 2019 - 12:00 PM EST / 2019.02.16 1700 UTC
Wind: Calm:0
Visibility: 3 mile(s):0
Temperature: 55 F (13 C)
Dew Point: 44 F (7 C)
Relative Humidity: 66%
Pressure (altimeter): 30.39 in. Hg (1029 hPa)
ob: LFMN 161700Z 00000KT 6000 NSC 13/07 Q1029 BECMG CAVOK
cycle: 17

Station Type Date Time Source
LFMN TAF 2019/02/16 15:24 UTC NOAA

TAF LFMN 161400Z 1615/1721 VRB03KT 8000 NSC PROB30
TEMPO 1615/1619 4000 BR
BECMG 1619/1621 34010KT CAVOK PROB40
TEMPO 1700/1710 3000 BR BKN010
FM171100 16010KT 9999 FEW013


Example: see airport list